createdAt,value
2018-06-28T00:00:22.663Z,20.54
2018-06-28T00:01:22.601Z,20.61
2018-06-28T00:02:22.537Z,20.53
2018-06-28T00:05:04.776Z,20.44
2018-06-28T00:07:46.772Z,20.54
2018-06-28T00:08:46.707Z,20.54
2018-06-28T00:09:46.616Z,20.54
2018-06-28T00:10:46.533Z,20.42
2018-06-28T00:11:46.446Z,20.56
2018-06-28T00:12:46.391Z,20.48
2018-06-28T00:13:46.284Z,20.40
2018-06-28T00:14:46.226Z,20.33
2018-06-28T00:15:46.130Z,20.33
2018-06-28T00:16:46.057Z,20.22
2018-06-28T00:17:46.006Z,20.27
2018-06-28T00:18:45.913Z,20.22
2018-06-28T00:19:45.814Z,20.26
2018-06-28T00:20:45.752Z,20.25
2018-06-28T00:21:45.667Z,20.23
2018-06-28T00:22:45.607Z,20.13
2018-06-28T00:23:45.510Z,20.17
2018-06-28T00:24:45.448Z,20.26
2018-06-28T00:25:45.346Z,20.16
2018-06-28T00:28:27.274Z,20.10
2018-06-28T00:29:27.228Z,20.01
2018-06-28T00:30:27.110Z,19.97
2018-06-28T00:31:27.034Z,19.95
2018-06-28T00:32:26.950Z,19.89
2018-06-28T00:33:26.912Z,19.82
2018-06-28T00:34:26.790Z,19.80
2018-06-28T00:35:26.732Z,19.89
2018-06-28T00:36:26.629Z,19.90
2018-06-28T00:37:26.557Z,19.78
2018-06-28T00:38:26.494Z,19.85
2018-06-28T00:39:26.578Z,19.85
2018-06-28T00:40:26.329Z,19.68
2018-06-28T00:41:26.272Z,19.64
2018-06-28T00:42:26.159Z,19.46
2018-06-28T00:43:27.125Z,19.52
2018-06-28T00:44:26.038Z,19.45
2018-06-28T00:45:25.954Z,19.45
2018-06-28T00:46:25.854Z,19.40
2018-06-28T00:47:25.790Z,19.35
2018-06-28T00:48:25.691Z,19.46
2018-06-28T00:49:25.645Z,19.34
2018-06-28T00:50:25.540Z,19.31
2018-06-28T00:51:25.482Z,19.45
2018-06-28T00:52:25.383Z,19.45
2018-06-28T00:53:25.315Z,19.46
2018-06-28T00:54:25.249Z,19.45
2018-06-28T00:55:25.154Z,19.34
2018-06-28T00:56:25.072Z,19.31
2018-06-28T00:59:07.286Z,19.35
2018-06-28T01:00:28.177Z,19.28
2018-06-28T01:01:07.114Z,19.25
2018-06-28T01:02:07.033Z,19.16
2018-06-28T01:03:06.967Z,19.05
2018-06-28T01:04:06.916Z,18.97
2018-06-28T01:05:06.817Z,18.84
2018-06-28T01:06:06.730Z,18.82
2018-06-28T01:07:06.655Z,18.75
2018-06-28T01:08:06.563Z,18.87
2018-06-28T01:09:06.524Z,18.82
2018-06-28T01:10:06.413Z,18.75
2018-06-28T01:11:06.352Z,18.76
2018-06-28T01:12:06.261Z,18.72
2018-06-28T01:13:06.187Z,18.78
2018-06-28T01:14:06.097Z,18.82
2018-06-28T01:15:06.052Z,18.86
2018-06-28T01:16:05.951Z,18.79
2018-06-28T01:17:05.878Z,18.79
2018-06-28T01:18:05.803Z,18.79
2018-06-28T01:19:05.707Z,18.90
2018-06-28T01:20:05.658Z,18.97
2018-06-28T01:21:05.569Z,18.93
2018-06-28T01:22:05.501Z,18.97
2018-06-28T01:23:05.400Z,19.05
2018-06-28T01:24:05.316Z,18.94
2018-06-28T01:25:05.270Z,18.97
2018-06-28T01:26:05.175Z,18.91
2018-06-28T01:27:06.107Z,18.91
2018-06-28T01:28:05.009Z,18.91
2018-06-28T01:29:04.927Z,18.84
2018-06-28T01:30:04.845Z,18.83
2018-06-28T01:32:46.799Z,18.78
2018-06-28T01:33:46.719Z,18.62
2018-06-28T01:34:46.624Z,18.74
2018-06-28T01:35:46.559Z,18.60
2018-06-28T01:36:46.487Z,18.57
2018-06-28T01:37:46.429Z,18.53
2018-06-28T01:38:46.305Z,18.53
2018-06-28T01:39:46.344Z,18.41
2018-06-28T01:40:46.162Z,18.28
2018-06-28T01:41:46.092Z,18.32
2018-06-28T01:42:46.010Z,18.26
2018-06-28T01:45:28.310Z,18.17
2018-06-28T01:46:49.254Z,18.26
2018-06-28T01:47:28.126Z,18.26
2018-06-28T01:48:28.052Z,18.17
2018-06-28T01:49:27.994Z,18.09
2018-06-28T01:50:27.902Z,18.07
2018-06-28T01:51:27.828Z,18.09
2018-06-28T01:54:09.802Z,17.96
2018-06-28T01:55:09.715Z,17.80
2018-06-28T01:56:09.624Z,17.80
2018-06-28T01:57:09.563Z,17.70
2018-06-28T01:58:09.481Z,17.68
2018-06-28T02:00:34.306Z,17.70
2018-06-28T02:01:34.213Z,17.70
2018-06-28T02:02:34.135Z,17.70
2018-06-28T02:03:34.093Z,17.71
2018-06-28T02:04:34.008Z,17.62
2018-06-28T02:05:33.910Z,17.62
2018-06-28T02:06:33.811Z,17.81
2018-06-28T02:07:33.746Z,17.73
2018-06-28T02:08:33.651Z,17.66
2018-06-28T02:09:33.593Z,17.71
2018-06-28T02:10:33.530Z,17.76
2018-06-28T02:11:33.427Z,17.73
2018-06-28T02:12:33.348Z,17.84
2018-06-28T02:13:33.311Z,17.81
2018-06-28T02:14:33.193Z,17.91
2018-06-28T02:17:15.301Z,18.05
2018-06-28T02:18:16.232Z,18.01
2018-06-28T02:19:15.130Z,18.10
2018-06-28T02:20:15.054Z,17.96
2018-06-28T02:21:14.978Z,17.92
2018-06-28T02:23:56.821Z,17.84
2018-06-28T02:24:56.724Z,17.99
2018-06-28T02:25:56.629Z,17.92
2018-06-28T02:26:56.560Z,17.91
2018-06-28T02:27:56.499Z,17.92
2018-06-28T02:28:57.419Z,17.87
2018-06-28T02:29:56.328Z,17.89
2018-06-28T02:30:56.275Z,17.86
2018-06-28T02:31:56.196Z,17.86
2018-06-28T02:34:38.315Z,17.65
2018-06-28T02:35:38.222Z,17.63
2018-06-28T02:36:38.147Z,17.54
2018-06-28T02:37:38.064Z,17.47
2018-06-28T02:38:38.005Z,17.43
2018-06-28T02:39:37.923Z,17.40
2018-06-28T02:40:37.843Z,17.35
2018-06-28T02:41:37.759Z,17.38
2018-06-28T02:42:37.677Z,17.38
2018-06-28T02:43:37.620Z,17.30
2018-06-28T02:44:37.508Z,17.35
2018-06-28T02:47:19.839Z,17.17
2018-06-28T02:50:01.824Z,17.17
2018-06-28T02:52:43.861Z,17.15
2018-06-28T02:53:43.845Z,17.18
2018-06-28T02:54:43.986Z,17.14
2018-06-28T02:55:44.442Z,17.05
2018-06-28T02:56:43.805Z,17.05
2018-06-28T02:57:43.419Z,17.12
2018-06-28T02:58:43.330Z,16.99
2018-06-28T02:59:43.250Z,17.02
2018-06-28T03:00:43.198Z,17.00
2018-06-28T03:01:43.182Z,17.02
2018-06-28T03:02:43.013Z,17.05
2018-06-28T03:03:42.943Z,16.98
2018-06-28T03:04:42.855Z,17.07
2018-06-28T03:05:42.782Z,17.10
2018-06-28T03:06:42.711Z,17.00
2018-06-28T03:07:42.628Z,17.02
2018-06-28T03:08:42.541Z,16.99
2018-06-28T03:11:24.828Z,17.03
2018-06-28T03:12:24.760Z,17.05
2018-06-28T03:13:24.650Z,17.06
2018-06-28T03:14:24.580Z,17.05
2018-06-28T03:15:24.502Z,16.90
2018-06-28T03:16:24.436Z,16.92
2018-06-28T03:17:24.345Z,16.84
2018-06-28T03:18:24.256Z,16.90
2018-06-28T03:19:24.172Z,16.87
2018-06-28T03:20:24.108Z,16.87
2018-06-28T03:21:24.049Z,16.88
2018-06-28T03:22:23.966Z,16.92
2018-06-28T03:23:23.864Z,16.84
2018-06-28T03:24:23.790Z,17.02
2018-06-28T03:25:23.714Z,17.02
2018-06-28T03:26:23.650Z,17.14
2018-06-28T03:27:23.599Z,17.20
2018-06-28T03:28:23.476Z,17.21
2018-06-28T03:29:23.392Z,17.32
2018-06-28T03:30:23.321Z,17.28
2018-06-28T03:31:23.239Z,17.27
2018-06-28T03:32:23.162Z,17.35
2018-06-28T03:33:23.219Z,17.33
2018-06-28T03:36:05.362Z,17.28
2018-06-28T03:37:05.247Z,17.28
2018-06-28T03:38:05.384Z,17.36
2018-06-28T03:39:05.094Z,17.36
2018-06-28T03:40:04.992Z,17.25
2018-06-28T03:41:04.921Z,17.30
2018-06-28T03:42:04.853Z,17.27
2018-06-28T03:43:04.794Z,17.35
2018-06-28T03:44:04.700Z,17.30
2018-06-28T03:45:04.631Z,17.33
2018-06-28T03:46:04.519Z,17.30
2018-06-28T03:47:04.453Z,17.36
2018-06-28T03:48:04.401Z,17.42
2018-06-28T03:50:46.323Z,17.40
2018-06-28T03:51:46.259Z,17.28
2018-06-28T03:52:46.165Z,17.28
2018-06-28T03:53:46.120Z,17.18
2018-06-28T03:54:46.006Z,17.17
2018-06-28T03:55:45.928Z,17.22
2018-06-28T03:56:45.852Z,17.17
2018-06-28T03:57:45.770Z,17.17
2018-06-28T03:58:45.701Z,17.14
2018-06-28T03:59:45.621Z,17.12
2018-06-28T04:00:45.548Z,17.10
2018-06-28T04:01:45.490Z,17.14
2018-06-28T04:02:45.369Z,17.12
2018-06-28T04:03:45.330Z,17.20
2018-06-28T04:04:45.218Z,17.18
2018-06-28T04:05:45.147Z,17.17
2018-06-28T04:06:45.056Z,17.27
2018-06-28T04:07:44.989Z,17.24
2018-06-28T04:08:44.924Z,17.18
2018-06-28T04:09:44.822Z,17.15
2018-06-28T04:10:44.736Z,17.21
2018-06-28T04:11:44.672Z,17.28
2018-06-28T04:12:44.680Z,17.25
2018-06-28T04:13:44.558Z,17.25
2018-06-28T04:14:44.442Z,17.15
2018-06-28T04:15:44.356Z,17.33
2018-06-28T04:16:44.334Z,17.28
2018-06-28T04:17:44.202Z,17.38
2018-06-28T04:18:44.403Z,17.39
2018-06-28T04:19:44.034Z,17.35
2018-06-28T04:20:43.954Z,17.40
2018-06-28T04:23:25.844Z,17.46
2018-06-28T04:24:25.777Z,17.63
2018-06-28T04:25:25.675Z,17.60
2018-06-28T04:28:07.839Z,17.92
2018-06-28T04:29:07.764Z,17.91
2018-06-28T04:30:07.696Z,18.02
2018-06-28T04:31:07.694Z,18.05
2018-06-28T04:32:07.527Z,18.11
2018-06-28T04:33:07.511Z,18.02
2018-06-28T04:34:07.368Z,18.01
2018-06-28T04:35:07.343Z,17.98
2018-06-28T04:36:07.199Z,17.94
2018-06-28T04:38:49.433Z,18.02
2018-06-28T04:39:49.288Z,18.02
2018-06-28T04:40:49.184Z,18.04
2018-06-28T04:44:33.368Z,17.86
2018-06-28T04:45:33.275Z,17.87
2018-06-28T04:46:33.223Z,17.95
2018-06-28T04:47:33.095Z,17.87
2018-06-28T04:48:33.033Z,17.89
2018-06-28T04:49:32.970Z,18.05
2018-06-28T04:50:32.912Z,18.09
2018-06-28T04:51:32.811Z,18.05
2018-06-28T04:52:32.708Z,18.09
2018-06-28T04:53:32.621Z,18.34
2018-06-28T04:54:32.578Z,18.39
2018-06-28T04:55:32.465Z,18.53
2018-06-28T04:56:32.392Z,18.57
2018-06-28T04:57:32.329Z,18.54
2018-06-28T04:58:32.242Z,18.69
2018-06-28T04:59:32.183Z,18.89
2018-06-28T05:00:33.112Z,18.93
2018-06-28T05:01:32.019Z,18.99
2018-06-28T05:04:14.350Z,19.12
2018-06-28T05:05:15.288Z,19.31
2018-06-28T05:06:14.178Z,19.64
2018-06-28T05:08:56.378Z,19.60
2018-06-28T05:09:56.281Z,19.49
2018-06-28T05:10:56.196Z,19.50
2018-06-28T05:13:38.339Z,19.49
2018-06-28T05:14:38.267Z,19.47
2018-06-28T05:15:38.270Z,19.53
2018-06-28T05:16:38.113Z,19.62
2018-06-28T05:17:38.084Z,19.67
2018-06-28T05:18:38.069Z,19.67
2018-06-28T05:19:37.873Z,19.70
2018-06-28T05:20:38.821Z,19.75
2018-06-28T05:21:37.731Z,19.70
2018-06-28T05:24:19.854Z,19.61
2018-06-28T05:27:01.858Z,19.55
2018-06-28T05:29:43.894Z,19.64
2018-06-28T05:30:43.786Z,19.62
2018-06-28T05:31:43.706Z,19.62
2018-06-28T05:34:25.886Z,19.80
2018-06-28T05:39:03.848Z,20.31
2018-06-28T05:41:45.874Z,20.37
2018-06-28T05:43:06.754Z,20.48
2018-06-28T05:43:45.723Z,20.48
2018-06-28T05:44:45.622Z,20.51
2018-06-28T05:45:45.562Z,20.61
2018-06-28T05:46:46.488Z,20.61
2018-06-28T05:47:45.377Z,20.60
2018-06-28T05:48:45.320Z,20.58
2018-06-28T05:49:45.225Z,20.60
2018-06-28T05:50:45.152Z,20.57
2018-06-28T05:51:45.080Z,20.61
2018-06-28T05:54:27.579Z,20.66
2018-06-28T05:55:27.303Z,20.61
2018-06-28T05:56:27.191Z,20.71
2018-06-28T05:57:28.140Z,20.71
2018-06-28T05:58:27.041Z,20.83
2018-06-28T05:59:26.977Z,20.83
2018-06-28T06:00:26.920Z,20.88
2018-06-28T06:01:26.858Z,20.90
2018-06-28T06:02:26.791Z,21.01
2018-06-28T06:03:26.683Z,20.97
2018-06-28T06:04:26.571Z,21.11
2018-06-28T06:05:26.500Z,21.00
2018-06-28T06:06:26.449Z,21.11
2018-06-28T06:07:26.361Z,21.13
2018-06-28T06:08:26.279Z,21.15
2018-06-28T06:11:08.352Z,21.28
2018-06-28T06:12:08.366Z,21.40
2018-06-28T06:13:08.227Z,21.42
2018-06-28T06:14:08.166Z,21.48
2018-06-28T06:15:08.053Z,21.53
2018-06-28T06:16:08.065Z,21.52
2018-06-28T06:17:07.903Z,21.55
2018-06-28T06:18:07.914Z,21.58
2018-06-28T06:19:07.733Z,21.61
2018-06-28T06:21:49.869Z,21.66
2018-06-28T06:22:49.941Z,21.74
2018-06-28T06:23:49.732Z,21.77
2018-06-28T06:24:49.713Z,21.81
2018-06-28T06:25:49.552Z,21.90
2018-06-28T06:26:49.477Z,21.89
2018-06-28T06:27:49.411Z,21.89
2018-06-28T06:28:49.327Z,21.93
2018-06-28T06:29:49.249Z,21.94
2018-06-28T06:30:49.167Z,22.09
2018-06-28T06:31:49.106Z,22.23
2018-06-28T06:32:49.074Z,22.27
2018-06-28T06:33:48.989Z,22.33
2018-06-28T06:34:48.871Z,22.76
2018-06-28T06:35:48.786Z,23.67
2018-06-28T06:36:50.710Z,24.93
2018-06-28T06:37:48.636Z,25.64
2018-06-28T06:38:48.591Z,26.44
2018-06-28T06:39:48.510Z,27.01
2018-06-28T06:42:30.387Z,28.67
2018-06-28T06:45:12.399Z,29.20
2018-06-28T06:50:12.761Z,30.00
2018-06-28T06:51:11.626Z,29.70
2018-06-28T06:52:11.545Z,29.63
2018-06-28T06:53:11.427Z,29.99
2018-06-28T06:55:53.452Z,30.46
2018-06-28T06:58:35.394Z,30.82
2018-06-28T06:59:36.435Z,30.86
2018-06-28T07:00:35.309Z,31.04
2018-06-28T07:01:35.201Z,30.97
2018-06-28T07:02:35.096Z,30.78
2018-06-28T07:03:35.056Z,31.22
2018-06-28T07:04:34.973Z,31.25
2018-06-28T07:07:16.939Z,31.00
2018-06-28T07:10:58.826Z,31.88
2018-06-28T07:11:58.736Z,31.57
2018-06-28T07:12:58.695Z,31.45
2018-06-28T07:16:39.905Z,31.38
2018-06-28T07:17:38.812Z,31.62
2018-06-28T07:18:38.753Z,31.75
2018-06-28T07:19:38.677Z,31.31
2018-06-28T07:20:38.666Z,31.47
2018-06-28T07:21:38.550Z,30.91
2018-06-28T07:24:20.384Z,30.45
2018-06-28T07:25:20.321Z,30.76
2018-06-28T07:26:20.267Z,31.03
2018-06-28T07:29:02.434Z,30.44
2018-06-28T07:38:20.895Z,30.96
2018-06-28T07:39:20.792Z,31.60
2018-06-28T07:40:20.718Z,31.47
2018-06-28T07:41:20.666Z,31.15
2018-06-28T07:42:20.631Z,30.53
2018-06-28T07:43:20.527Z,30.88
2018-06-28T07:44:20.442Z,30.29
2018-06-28T07:45:20.425Z,30.75
2018-06-28T07:46:20.313Z,30.30
2018-06-28T07:47:20.285Z,31.09
2018-06-28T07:48:20.180Z,30.60
2018-06-28T07:49:20.167Z,31.12
2018-06-28T07:50:20.045Z,31.18
2018-06-28T07:53:01.935Z,32.44
2018-06-28T07:54:01.838Z,32.29
2018-06-28T07:55:01.811Z,30.86
2018-06-28T07:57:43.901Z,29.48
2018-06-28T07:58:43.874Z,29.62
2018-06-28T07:59:43.795Z,29.49
2018-06-28T08:00:43.696Z,29.37
2018-06-28T08:01:43.648Z,29.76
2018-06-28T08:04:25.954Z,30.97
2018-06-28T08:05:25.841Z,31.28
2018-06-28T08:26:05.515Z,32.43
2018-06-28T08:27:05.428Z,33.03
2018-06-28T08:28:05.377Z,32.73
2018-06-28T08:29:05.286Z,32.31
2018-06-28T08:30:05.236Z,32.41
2018-06-28T08:31:05.195Z,31.85
2018-06-28T08:32:05.098Z,30.85
2018-06-28T08:33:05.041Z,30.61
2018-06-28T08:34:04.978Z,31.18
2018-06-28T08:35:04.912Z,31.19
2018-06-28T08:36:04.886Z,31.25
2018-06-28T08:37:04.761Z,30.36
2018-06-28T08:38:04.703Z,29.76
2018-06-28T08:40:50.968Z,30.00
2018-06-28T08:41:50.965Z,30.32
2018-06-28T08:44:32.943Z,31.88
2018-06-28T08:47:15.000Z,30.25
2018-06-28T08:49:56.924Z,29.11
2018-06-28T08:50:56.986Z,29.47
2018-06-28T08:51:56.866Z,30.01
2018-06-28T08:54:38.927Z,31.28
2018-06-28T08:55:38.893Z,31.76
2018-06-28T08:56:38.816Z,32.21
2018-06-28T08:57:38.792Z,32.02
2018-06-28T08:58:38.660Z,32.13
2018-06-28T08:59:38.612Z,31.78
2018-06-28T09:00:38.538Z,31.30
2018-06-28T09:01:38.506Z,31.82
2018-06-28T09:02:38.413Z,32.22
2018-06-28T09:05:20.467Z,32.34
2018-06-28T09:06:20.399Z,32.12
2018-06-28T09:07:20.436Z,31.90
2018-06-28T09:08:20.262Z,31.28
2018-06-28T09:09:20.192Z,32.06
2018-06-28T09:11:09.074Z,32.58
2018-06-28T09:11:20.104Z,32.76
2018-06-28T09:12:19.977Z,31.84
2018-06-28T09:13:20.932Z,31.64
2018-06-28T09:14:19.848Z,31.30
2018-06-28T09:15:19.871Z,30.78
2018-06-28T09:16:19.716Z,30.67
2018-06-28T09:19:01.961Z,29.52
2018-06-28T09:20:01.877Z,30.03
2018-06-28T09:21:01.856Z,29.88
2018-06-28T09:23:43.986Z,30.26
2018-06-28T09:24:43.913Z,30.22
2018-06-28T09:25:43.819Z,30.18
2018-06-28T09:28:25.952Z,30.72
2018-06-28T09:29:25.893Z,30.56
2018-06-28T09:30:25.810Z,30.90
2018-06-28T09:31:25.746Z,31.25
2018-06-28T09:32:25.667Z,32.13
2018-06-28T09:33:25.637Z,32.96
2018-06-28T09:34:25.542Z,33.60
2018-06-28T09:35:25.512Z,33.74
2018-06-28T09:36:25.409Z,33.94
2018-06-28T09:37:25.360Z,33.72
2018-06-28T09:38:25.322Z,33.77
2018-06-28T09:41:07.447Z,32.95
2018-06-28T09:43:49.466Z,30.91
2018-06-28T09:46:31.445Z,31.75
2018-06-28T09:49:13.465Z,31.23
2018-06-28T09:50:13.388Z,30.59
2018-06-28T09:51:13.311Z,30.59
2018-06-28T09:52:13.278Z,31.03
2018-06-28T09:53:13.219Z,32.02
2018-06-28T09:54:13.153Z,32.32
2018-06-28T09:55:13.067Z,32.71
2018-06-28T09:56:13.024Z,31.88
2018-06-28T09:57:12.946Z,31.38
2018-06-28T09:58:12.882Z,31.05
2018-06-28T09:59:12.848Z,31.91
2018-06-28T10:00:12.836Z,31.87
2018-06-28T10:01:12.694Z,32.22
2018-06-28T10:03:54.944Z,32.34
2018-06-28T10:04:55.918Z,33.12
2018-06-28T10:05:54.819Z,33.84
2018-06-28T10:06:54.785Z,33.11
2018-06-28T10:07:54.701Z,32.47
2018-06-28T10:08:54.636Z,32.06
2018-06-28T10:09:54.686Z,32.29
2018-06-28T10:10:54.546Z,31.78
2018-06-28T10:11:54.469Z,31.38
2018-06-28T10:12:54.393Z,31.90
2018-06-28T10:13:54.315Z,32.03
2018-06-28T10:14:55.301Z,32.31
2018-06-28T10:15:54.190Z,31.90
2018-06-28T10:16:54.151Z,31.13
2018-06-28T10:17:54.078Z,31.16
2018-06-28T10:18:54.056Z,31.84
2018-06-28T10:19:53.967Z,31.91
2018-06-28T10:20:53.905Z,32.28
2018-06-28T10:21:53.846Z,32.41
2018-06-28T10:22:53.765Z,32.80
2018-06-28T10:23:53.702Z,32.72
2018-06-28T10:26:35.963Z,33.28
2018-06-28T10:27:35.910Z,33.38
2018-06-28T10:28:35.859Z,33.18
2018-06-28T10:29:35.777Z,32.56
2018-06-28T10:30:35.719Z,32.40
2018-06-28T10:31:35.653Z,31.30
2018-06-28T10:32:35.637Z,30.82
2018-06-28T10:33:35.535Z,30.37
2018-06-28T10:34:35.452Z,30.42
2018-06-28T10:35:35.433Z,30.85
2018-06-28T10:36:35.348Z,31.12
2018-06-28T10:37:35.278Z,31.40
2018-06-28T10:38:35.247Z,32.36
2018-06-28T10:41:17.502Z,31.87
2018-06-28T10:42:17.412Z,32.02
2018-06-28T10:43:17.342Z,31.22
2018-06-28T10:44:17.284Z,31.18
2018-06-28T10:45:17.235Z,31.45
2018-06-28T10:46:17.194Z,31.62
2018-06-28T10:47:17.147Z,31.71
2018-06-28T10:49:58.995Z,31.46
2018-06-28T10:50:58.920Z,31.65
2018-06-28T10:51:58.853Z,31.62
2018-06-28T10:52:59.494Z,31.49
2018-06-28T10:53:58.753Z,31.87
2018-06-28T10:54:58.707Z,32.62
2018-06-28T10:55:58.599Z,32.16
2018-06-28T10:56:58.559Z,31.12
2018-06-28T10:57:58.467Z,30.44
2018-06-28T10:58:58.410Z,30.34
2018-06-28T10:59:58.368Z,30.63
2018-06-28T11:00:58.290Z,31.31
2018-06-28T11:01:58.229Z,30.88
2018-06-28T11:02:58.171Z,30.22
2018-06-28T11:03:58.110Z,30.60
2018-06-28T11:04:58.030Z,31.07
2018-06-28T11:05:57.980Z,31.84
2018-06-28T11:06:57.917Z,32.39
2018-06-28T11:07:57.850Z,32.71
2018-06-28T11:08:57.874Z,32.99
2018-06-28T11:09:57.722Z,32.61
2018-06-28T11:10:57.689Z,32.63
2018-06-28T11:11:57.606Z,32.51
2018-06-28T11:12:57.538Z,32.50
2018-06-28T11:13:57.494Z,32.69
2018-06-28T11:14:57.477Z,32.59
2018-06-28T11:17:40.526Z,32.61
2018-06-28T11:18:39.456Z,32.69
2018-06-28T11:21:21.497Z,32.95
2018-06-28T11:22:21.437Z,32.31
2018-06-28T11:23:21.376Z,31.98
2018-06-28T11:24:21.309Z,31.76
2018-06-28T11:25:21.294Z,31.40
2018-06-28T11:26:22.194Z,31.41
2018-06-28T11:27:21.114Z,30.83
2018-06-28T11:28:22.072Z,30.44
2018-06-28T11:29:21.054Z,30.75
2018-06-28T11:30:20.936Z,30.85
2018-06-28T11:31:20.948Z,31.03
2018-06-28T11:32:20.811Z,31.52
2018-06-28T11:33:20.733Z,31.79
2018-06-28T11:34:20.665Z,31.87
2018-06-28T11:35:20.611Z,31.22
2018-06-28T11:36:20.626Z,30.79
2018-06-28T11:40:44.490Z,31.94
2018-06-28T11:41:44.473Z,31.59
2018-06-28T11:42:44.367Z,31.85
2018-06-28T11:43:44.297Z,31.31
2018-06-28T11:44:44.233Z,31.34
2018-06-28T11:45:44.191Z,31.27
2018-06-28T11:46:44.114Z,31.10
2018-06-28T11:47:44.051Z,30.70
2018-06-28T11:48:43.974Z,31.09
2018-06-28T11:51:25.993Z,31.34
2018-06-28T11:52:25.949Z,30.42
2018-06-28T11:53:25.867Z,30.85
2018-06-28T11:56:07.995Z,31.54
2018-06-28T11:58:50.007Z,31.25
2018-06-28T11:59:49.933Z,31.42
2018-06-28T12:00:49.870Z,31.54
2018-06-28T12:01:49.809Z,31.79
2018-06-28T12:02:49.750Z,31.90
2018-06-28T12:03:49.676Z,31.31
2018-06-28T12:04:49.605Z,31.18
2018-06-28T12:07:31.529Z,30.59
2018-06-28T12:10:13.494Z,30.11
2018-06-28T12:12:55.526Z,29.81
2018-06-28T12:13:55.424Z,28.98
2018-06-28T12:14:55.350Z,28.73
2018-06-28T12:17:37.512Z,28.45
2018-06-28T12:18:37.445Z,28.42
2018-06-28T12:19:37.356Z,28.52
2018-06-28T12:20:37.299Z,28.65
2018-06-28T12:21:37.223Z,28.51
2018-06-28T12:24:19.513Z,28.14
2018-06-28T12:25:19.435Z,28.28
2018-06-28T12:26:19.351Z,28.54
2018-06-28T12:27:19.283Z,28.67
2018-06-28T12:28:19.230Z,28.80
2018-06-28T12:29:19.142Z,28.92
2018-06-28T12:30:19.088Z,28.98
2018-06-28T12:31:19.012Z,29.18
2018-06-28T12:32:18.929Z,29.44
2018-06-28T12:33:18.907Z,29.63
